Time;durP1;ratioP1;P1;durP2;ratioP2;P2;SDS_P1;SDS_P2;PMS_P1;PMS_P2;Temp;Humidity;BMP_temperature;BMP_pressure;BME280_temperature;BME280_humidity;BME280_pressure;Samples;Min_cycle;Max_cycle;Signal;HPM_P1;HPM_P2
2021/10/12 00:02:06;;;;;;;2.95;1.70;;;;;;;;;;5054100;28;20503;-75
2021/10/12 00:04:34;;;;;;;2.15;1.60;;;;;;;;;;5053702;28;20041;-75
2021/10/12 00:07:05;;;;;;;1.83;1.40;;;;;;;;;;5054068;28;20037;-74
2021/10/12 00:09:32;;;;;;;4.13;1.20;;;;;;;;;;5036320;28;20045;-75
2021/10/12 00:12:00;;;;;;;3.33;1.40;;;;;;;;;;5052860;28;20049;-74
2021/10/12 00:14:28;;;;;;;2.22;1.15;;;;;;;;;;5035924;28;20051;-72
2021/10/12 00:16:55;;;;;;;4.60;1.48;;;;;;;;;;5053580;28;20127;-73
2021/10/12 00:19:23;;;;;;;4.55;1.30;;;;;;;;;;5053686;28;20577;-71
2021/10/12 00:21:50;;;;;;;3.60;1.20;;;;;;;;;;5053441;28;20033;-72
2021/10/12 00:24:18;;;;;;;2.85;1.10;;;;;;;;;;5053571;28;20120;-73
2021/10/12 00:26:45;;;;;;;3.03;1.08;;;;;;;;;;5053193;28;20045;-73
2021/10/12 00:29:15;;;;;;;3.60;1.23;;;;;;;;;;5030294;28;20052;-73
2021/10/12 00:31:42;;;;;;;2.90;1.38;;;;;;;;;;5033572;28;20429;-72
2021/10/12 00:34:10;;;;;;;2.05;1.30;;;;;;;;;;5033535;28;20045;-73
2021/10/12 00:36:37;;;;;;;2.22;1.10;;;;;;;;;;5034201;28;20042;-72
2021/10/12 00:39:06;;;;;;;3.47;1.48;;;;;;;;;;5016172;28;20076;-73
2021/10/12 00:41:33;;;;;;;3.22;1.30;;;;;;;;;;5015107;28;20045;-71
2021/10/12 00:44:01;;;;;;;1.75;1.10;;;;;;;;;;5033366;28;20048;-73
2021/10/12 00:46:29;;;;;;;4.50;1.15;;;;;;;;;;5016016;28;20046;-73
2021/10/12 00:48:57;;;;;;;4.05;0.90;;;;;;;;;;5033353;28;20045;-73
2021/10/12 00:51:25;;;;;;;5.82;1.35;;;;;;;;;;5016033;28;20076;-74
2021/10/12 00:53:53;;;;;;;3.50;1.50;;;;;;;;;;5016316;28;20041;-72
2021/10/12 00:56:22;;;;;;;5.40;1.30;;;;;;;;;;5033258;28;20099;-73
2021/10/12 00:58:50;;;;;;;3.25;1.17;;;;;;;;;;5033397;28;20128;-71
2021/10/12 01:01:18;;;;;;;2.40;1.10;;;;;;;;;;5033388;28;20042;-73
2021/10/12 01:03:46;;;;;;;3.75;1.10;;;;;;;;;;5033008;28;20045;-73
2021/10/12 01:06:14;;;;;;;2.88;1.23;;;;;;;;;;5015610;28;20491;-73
2021/10/12 01:08:41;;;;;;;3.70;1.02;;;;;;;;;;5023138;28;20070;-72
2021/10/12 01:11:09;;;;;;;4.05;1.13;;;;;;;;;;5069641;28;20048;-73
2021/10/12 01:13:38;;;;;;;3.58;1.20;;;;;;;;;;5053597;28;20064;-71
2021/10/12 01:16:06;;;;;;;2.58;1.30;;;;;;;;;;5072509;28;20071;-72
2021/10/12 01:18:36;;;;;;;3.35;1.30;;;;;;;;;;5073239;28;20044;-73
2021/10/12 01:21:03;;;;;;;5.43;1.30;;;;;;;;;;5072818;28;20560;-73
2021/10/12 01:23:31;;;;;;;3.13;1.27;;;;;;;;;;5072503;28;20128;-72
2021/10/12 01:25:58;;;;;;;2.67;1.65;;;;;;;;;;5072714;28;20115;-71
2021/10/12 01:28:28;;;;;;;1.23;1.05;;;;;;;;;;5072943;28;20048;-71
2021/10/12 01:30:56;;;;;;;3.25;1.20;;;;;;;;;;5072509;28;20131;-71
2021/10/12 01:33:23;;;;;;;2.60;1.42;;;;;;;;;;5072641;28;20090;-72
2021/10/12 01:35:52;;;;;;;2.10;1.20;;;;;;;;;;5072487;28;20036;-72
2021/10/12 01:38:20;;;;;;;2.88;1.13;;;;;;;;;;5053933;28;20460;-71
2021/10/12 01:40:48;;;;;;;2.03;1.20;;;;;;;;;;5072535;28;20041;-72
2021/10/12 01:43:15;;;;;;;1.58;1.20;;;;;;;;;;5072417;28;20045;-71
2021/10/12 01:45:43;;;;;;;6.60;2.00;;;;;;;;;;5072281;28;20090;-72
2021/10/12 01:48:10;;;;;;;2.38;1.15;;;;;;;;;;5072382;28;20098;-71
2021/10/12 01:50:38;;;;;;;2.63;1.48;;;;;;;;;;5072689;28;20511;-72
2021/10/12 01:53:05;;;;;;;2.00;1.20;;;;;;;;;;5071818;28;20044;-72
2021/10/12 01:55:34;;;;;;;3.10;1.55;;;;;;;;;;5072605;28;20045;-71
2021/10/12 01:58:02;;;;;;;3.40;1.50;;;;;;;;;;5072433;28;20469;-72
2021/10/12 02:00:29;;;;;;;4.00;1.17;;;;;;;;;;5071989;28;20044;-72
2021/10/12 02:02:57;;;;;;;3.13;1.20;;;;;;;;;;5072362;28;20048;-72
2021/10/12 02:05:26;;;;;;;3.60;1.10;;;;;;;;;;5076296;28;20120;-72
2021/10/12 02:07:53;;;;;;;2.30;0.95;;;;;;;;;;5076080;28;20068;-72
2021/10/12 02:10:21;;;;;;;4.32;1.17;;;;;;;;;;5058750;28;20442;-73
2021/10/12 02:12:48;;;;;;;9.52;1.15;;;;;;;;;;5058274;28;20507;-71
2021/10/12 02:15:16;;;;;;;2.15;0.98;;;;;;;;;;5076300;28;20534;-72
2021/10/12 02:17:44;;;;;;;2.15;0.93;;;;;;;;;;5076770;28;20045;-72
2021/10/12 02:20:12;;;;;;;4.15;1.48;;;;;;;;;;5076173;28;20037;-72
2021/10/12 02:22:40;;;;;;;4.97;0.93;;;;;;;;;;5075513;28;20045;-73
2021/10/12 02:25:08;;;;;;;2.85;0.80;;;;;;;;;;5074472;28;20144;-72
2021/10/12 02:27:37;;;;;;;1.02;0.80;;;;;;;;;;5074592;28;20098;-72
2021/10/12 02:30:06;;;;;;;2.28;1.13;;;;;;;;;;5075527;28;20078;-73
2021/10/12 02:32:33;;;;;;;2.33;0.90;;;;;;;;;;5075831;28;20036;-73
2021/10/12 02:35:01;;;;;;;3.40;0.80;;;;;;;;;;5076004;28;20413;-75
2021/10/12 02:37:28;;;;;;;6.03;1.13;;;;;;;;;;5075380;28;20067;-75
2021/10/12 02:39:56;;;;;;;3.25;0.82;;;;;;;;;;5076076;28;20040;-75
2021/10/12 02:42:23;;;;;;;1.63;0.98;;;;;;;;;;5075357;28;20501;-75
2021/10/12 02:44:51;;;;;;;3.20;0.65;;;;;;;;;;5075796;28;20553;-75
2021/10/12 02:47:18;;;;;;;4.63;1.05;;;;;;;;;;5075717;28;20040;-75
2021/10/12 02:49:46;;;;;;;2.75;1.40;;;;;;;;;;5075425;28;20048;-75
2021/10/12 02:52:13;;;;;;;3.08;1.00;;;;;;;;;;5075419;28;20049;-75
2021/10/12 02:54:41;;;;;;;4.35;0.90;;;;;;;;;;5075850;28;20116;-73
2021/10/12 02:57:08;;;;;;;2.05;1.20;;;;;;;;;;5075622;28;20049;-73
2021/10/12 02:59:36;;;;;;;4.40;0.88;;;;;;;;;;5075590;28;20049;-73
2021/10/12 03:02:04;;;;;;;3.67;1.20;;;;;;;;;;5075198;28;20040;-75
2021/10/12 03:04:32;;;;;;;5.05;1.67;;;;;;;;;;5074846;28;20064;-75
2021/10/12 03:07:00;;;;;;;5.18;1.90;;;;;;;;;;5074920;28;20103;-74
2021/10/12 03:09:27;;;;;;;7.00;2.60;;;;;;;;;;5075415;28;20046;-75
2021/10/12 03:11:55;;;;;;;4.38;1.50;;;;;;;;;;5075346;28;20045;-75
2021/10/12 03:14:22;;;;;;;3.33;1.50;;;;;;;;;;5075319;28;20047;-75
2021/10/12 03:16:50;;;;;;;1.80;1.48;;;;;;;;;;5056374;28;20044;-73
2021/10/12 03:19:17;;;;;;;3.92;1.90;;;;;;;;;;5057262;28;20382;-75
2021/10/12 03:22:31;;;;;;;6.53;2.90;;;;;;;;;;5074812;28;20047;-74
2021/10/12 03:24:33;;;;;;;2.38;2.17;;;;;;;;;;5061158;28;20054;-74
2021/10/12 03:27:00;;;;;;;2.97;1.88;;;;;;;;;;5075234;28;20064;-75
2021/10/12 03:29:27;;;;;;;2.33;1.42;;;;;;;;;;5075091;28;20036;-75
2021/10/12 03:31:55;;;;;;;6.65;3.05;;;;;;;;;;5074879;28;20044;-74
2021/10/12 03:34:23;;;;;;;2.67;1.42;;;;;;;;;;5056369;28;20040;-72
2021/10/12 03:36:50;;;;;;;3.35;1.40;;;;;;;;;;5074575;28;20055;-75
2021/10/12 03:39:18;;;;;;;2.67;1.40;;;;;;;;;;5074996;28;20127;-73
2021/10/12 03:41:45;;;;;;;2.03;1.27;;;;;;;;;;5056767;28;20063;-73
2021/10/12 03:44:13;;;;;;;2.97;1.38;;;;;;;;;;5074480;28;20044;-75
2021/10/12 03:46:40;;;;;;;3.45;1.67;;;;;;;;;;5074292;28;20041;-73
2021/10/12 03:49:08;;;;;;;4.60;1.60;;;;;;;;;;5056509;28;20048;-74
2021/10/12 03:51:36;;;;;;;3.00;1.27;;;;;;;;;;5074429;28;20040;-75
2021/10/12 03:54:03;;;;;;;7.25;1.50;;;;;;;;;;5074585;28;20052;-73
2021/10/12 03:56:31;;;;;;;2.15;1.40;;;;;;;;;;5074402;28;20040;-74
2021/10/12 03:58:59;;;;;;;2.58;1.30;;;;;;;;;;5073961;28;20047;-73
2021/10/12 04:01:26;;;;;;;2.03;1.00;;;;;;;;;;5073845;28;20067;-73
2021/10/12 04:03:54;;;;;;;1.38;1.02;;;;;;;;;;5073938;28;20068;-74
2021/10/12 04:06:22;;;;;;;2.35;1.35;;;;;;;;;;5074127;28;20062;-74
2021/10/12 04:08:49;;;;;;;5.97;1.35;;;;;;;;;;5073832;28;20044;-73
2021/10/12 04:11:17;;;;;;;2.05;1.27;;;;;;;;;;5074049;28;20040;-75
2021/10/12 04:13:44;;;;;;;4.10;1.42;;;;;;;;;;5074452;28;20124;-71
2021/10/12 04:16:12;;;;;;;1.73;1.10;;;;;;;;;;5056801;28;20044;-74
2021/10/12 04:18:39;;;;;;;3.53;1.23;;;;;;;;;;5039575;28;20067;-75
2021/10/12 04:21:07;;;;;;;4.60;1.95;;;;;;;;;;5073549;28;20033;-74
2021/10/12 04:23:36;;;;;;;4.22;1.90;;;;;;;;;;5073704;28;20121;-73
2021/10/12 04:26:08;;;;;;;5.90;1.88;;;;;;;;;;5073721;28;20124;-73
2021/10/12 04:28:39;;;;;;;1.42;1.20;;;;;;;;;;5055222;28;20455;-75
2021/10/12 04:31:07;;;;;;;2.58;1.45;;;;;;;;;;5073913;28;20048;-74
2021/10/12 04:33:34;;;;;;;2.60;1.38;;;;;;;;;;5054667;28;20079;-74
2021/10/12 04:36:02;;;;;;;2.47;1.30;;;;;;;;;;5073631;28;20047;-73
2021/10/12 04:38:29;;;;;;;3.35;1.83;;;;;;;;;;5073121;28;20502;-74
2021/10/12 04:40:57;;;;;;;3.53;1.55;;;;;;;;;;5073352;28;20460;-76
2021/10/12 04:43:25;;;;;;;2.88;1.52;;;;;;;;;;5072820;28;20570;-75
2021/10/12 04:45:52;;;;;;;2.33;1.40;;;;;;;;;;5073391;28;20492;-74
2021/10/12 04:48:20;;;;;;;1.50;1.17;;;;;;;;;;5072808;28;20051;-73
2021/10/12 04:50:47;;;;;;;6.10;1.40;;;;;;;;;;5073054;28;20513;-73
2021/10/12 04:53:15;;;;;;;3.10;1.40;;;;;;;;;;5055760;28;20051;-74
2021/10/12 04:55:42;;;;;;;1.38;1.23;;;;;;;;;;5073321;28;20100;-74
2021/10/12 04:58:10;;;;;;;4.22;1.33;;;;;;;;;;5073131;28;20044;-73
2021/10/12 05:00:37;;;;;;;6.40;1.67;;;;;;;;;;5072732;28;20508;-75
2021/10/12 05:03:05;;;;;;;3.08;1.75;;;;;;;;;;5054846;28;20041;-73
2021/10/12 05:05:34;;;;;;;2.97;1.60;;;;;;;;;;5072928;28;20040;-73
2021/10/12 05:08:02;;;;;;;7.03;2.00;;;;;;;;;;5072832;28;20044;-75
2021/10/12 05:10:30;;;;;;;6.03;2.10;;;;;;;;;;5073181;28;20064;-74
2021/10/12 05:12:57;;;;;;;4.90;2.22;;;;;;;;;;5055454;28;20076;-73
2021/10/12 05:15:27;;;;;;;2.58;1.60;;;;;;;;;;5073093;28;20047;-73
2021/10/12 05:17:57;;;;;;;8.15;2.10;;;;;;;;;;5038517;28;20049;-77
2021/10/12 05:20:26;;;;;;;4.00;1.95;;;;;;;;;;5072506;28;20037;-76
2021/10/12 05:22:56;;;;;;;3.50;1.77;;;;;;;;;;5072874;28;20064;-78
2021/10/12 05:25:24;;;;;;;5.50;1.90;;;;;;;;;;5072781;28;20041;-73
2021/10/12 05:27:51;;;;;;;7.13;2.58;;;;;;;;;;5072594;28;20052;-76
2021/10/12 05:30:24;;;;;;;5.55;2.30;;;;;;;;;;5071382;28;20128;-76
2021/10/12 05:32:54;;;;;;;2.60;2.20;;;;;;;;;;5072086;28;20040;-77
2021/10/12 05:35:22;;;;;;;6.97;2.22;;;;;;;;;;5073067;28;20045;-73
2021/10/12 05:37:49;;;;;;;3.30;1.95;;;;;;;;;;5072519;28;20045;-76
2021/10/12 05:40:17;;;;;;;5.93;2.35;;;;;;;;;;5058216;28;20045;-78
2021/10/12 05:42:45;;;;;;;4.38;2.05;;;;;;;;;;5076631;28;20054;-78
2021/10/12 05:45:13;;;;;;;4.53;1.60;;;;;;;;;;5076232;28;20901;-78
2021/10/12 05:47:40;;;;;;;5.05;2.20;;;;;;;;;;5076761;28;20041;-74
2021/10/12 05:50:08;;;;;;;6.30;1.77;;;;;;;;;;5058674;28;20053;-74
2021/10/12 05:52:38;;;;;;;5.63;2.00;;;;;;;;;;5076493;28;20037;-77
2021/10/12 05:55:20;;;;;;;6.00;2.60;;;;;;;;;;5076265;28;20497;-76
2021/10/12 05:58:07;;;;;;;4.38;1.95;;;;;;;;;;5060114;28;20459;-77
2021/10/12 06:00:35;;;;;;;8.73;2.53;;;;;;;;;;5075656;28;20430;-74
2021/10/12 06:03:03;;;;;;;3.55;2.17;;;;;;;;;;5076253;28;20166;-77
2021/10/12 06:05:31;;;;;;;6.28;1.98;;;;;;;;;;5075847;28;20421;-76
2021/10/12 06:08:00;;;;;;;7.45;2.20;;;;;;;;;;5075861;28;20072;-76
2021/10/12 06:10:29;;;;;;;3.90;2.00;;;;;;;;;;5075938;28;20037;-77
2021/10/12 06:12:57;;;;;;;5.15;2.50;;;;;;;;;;5058989;28;20048;-75
2021/10/12 06:15:24;;;;;;;6.05;1.80;;;;;;;;;;5058357;28;20424;-72
2021/10/12 06:17:52;;;;;;;5.50;2.60;;;;;;;;;;5076268;28;20039;-77
2021/10/12 06:20:19;;;;;;;4.15;1.98;;;;;;;;;;5057482;28;20041;-76
2021/10/12 06:22:48;;;;;;;5.90;2.78;;;;;;;;;;5076046;28;20386;-74
2021/10/12 06:25:16;;;;;;;2.60;1.70;;;;;;;;;;5057976;28;20064;-79
2021/10/12 06:27:45;;;;;;;5.22;1.90;;;;;;;;;;5057942;28;20505;-78
2021/10/12 06:30:12;;;;;;;3.45;1.85;;;;;;;;;;5041195;28;20135;-76
2021/10/12 06:32:40;;;;;;;6.78;2.10;;;;;;;;;;5076255;28;20036;-77
2021/10/12 06:35:08;;;;;;;4.63;2.53;;;;;;;;;;5076162;28;20059;-77
2021/10/12 06:37:36;;;;;;;6.60;1.52;;;;;;;;;;5075891;28;20135;-76
2021/10/12 06:40:03;;;;;;;4.32;1.30;;;;;;;;;;5057583;28;20036;-75
2021/10/12 06:42:32;;;;;;;2.45;1.40;;;;;;;;;;5074988;28;20041;-76
2021/10/12 06:45:01;;;;;;;3.28;1.25;;;;;;;;;;5057452;28;20047;-74
2021/10/12 06:47:47;;;;;;;2.70;1.40;;;;;;;;;;5075907;28;20464;-75
2021/10/12 06:50:16;;;;;;;2.40;1.23;;;;;;;;;;5074953;28;20068;-75
2021/10/12 06:52:44;;;;;;;3.63;1.50;;;;;;;;;;5075059;28;20040;-76
2021/10/12 06:55:12;;;;;;;2.72;1.25;;;;;;;;;;5057351;28;20055;-75
2021/10/12 06:57:41;;;;;;;4.32;1.23;;;;;;;;;;5074502;28;20054;-76
2021/10/12 07:00:13;;;;;;;4.47;1.05;;;;;;;;;;5057377;28;20050;-73
2021/10/12 07:02:42;;;;;;;3.00;1.30;;;;;;;;;;5075025;28;20075;-72
2021/10/12 07:05:11;;;;;;;4.43;1.60;;;;;;;;;;5075036;28;20041;-73
2021/10/12 07:07:38;;;;;;;5.03;1.58;;;;;;;;;;5074885;28;20155;-72
2021/10/12 07:10:07;;;;;;;3.58;1.60;;;;;;;;;;5075008;28;20400;-75
2021/10/12 07:12:34;;;;;;;2.38;1.10;;;;;;;;;;5074804;28;20365;-76
2021/10/12 07:15:04;;;;;;;2.38;1.30;;;;;;;;;;5066299;28;20410;-73
2021/10/12 07:17:33;;;;;;;3.17;1.33;;;;;;;;;;5054634;28;20051;-74
2021/10/12 07:20:00;;;;;;;4.20;1.17;;;;;;;;;;5055067;28;20041;-73
2021/10/12 07:22:28;;;;;;;4.85;1.35;;;;;;;;;;5054524;28;20044;-76
2021/10/12 07:24:58;;;;;;;4.68;1.38;;;;;;;;;;5054805;28;20041;-73
2021/10/12 07:27:25;;;;;;;3.90;1.80;;;;;;;;;;5054362;28;20463;-75
2021/10/12 07:30:13;;;;;;;3.25;1.20;;;;;;;;;;5036382;28;20395;-75
2021/10/12 07:32:40;;;;;;;2.95;1.00;;;;;;;;;;5054598;28;20045;-76
2021/10/12 07:35:08;;;;;;;1.55;0.90;;;;;;;;;;5054311;28;20077;-76
2021/10/12 07:37:37;;;;;;;1.33;0.90;;;;;;;;;;5036854;28;20048;-76
2021/10/12 07:40:05;;;;;;;2.30;1.15;;;;;;;;;;5036555;28;20131;-75
2021/10/12 07:42:34;;;;;;;3.15;1.23;;;;;;;;;;5035719;28;20491;-76
2021/10/12 07:45:01;;;;;;;4.97;1.40;;;;;;;;;;5054300;28;20037;-74
2021/10/12 07:47:29;;;;;;;1.52;1.08;;;;;;;;;;5054375;28;20123;-73
2021/10/12 07:49:56;;;;;;;5.18;1.05;;;;;;;;;;5053924;28;20115;-73
2021/10/12 07:52:24;;;;;;;4.95;1.40;;;;;;;;;;5054425;28;20041;-75
2021/10/12 07:55:00;;;;;;;6.40;1.15;;;;;;;;;;5054147;28;20456;-74
2021/10/12 07:57:28;;;;;;;3.40;1.08;;;;;;;;;;5051764;28;20091;-72
2021/10/12 07:59:55;;;;;;;8.27;1.77;;;;;;;;;;5052311;28;20043;-74
2021/10/12 08:02:23;;;;;;;3.58;1.20;;;;;;;;;;5034574;28;20041;-72
2021/10/12 08:04:51;;;;;;;5.28;1.42;;;;;;;;;;5053948;28;20044;-73
2021/10/12 08:07:18;;;;;;;1.63;1.08;;;;;;;;;;5053305;28;20036;-73
2021/10/12 08:09:46;;;;;;;3.65;1.83;;;;;;;;;;5035581;28;20529;-72
2021/10/12 08:12:14;;;;;;;3.95;1.30;;;;;;;;;;5053690;28;20048;-74
2021/10/12 08:43:06;;;;;;;3.88;1.60;;;;;;;;;;5090095;27;20369;-71
2021/10/12 08:45:35;;;;;;;5.05;1.30;;;;;;;;;;5089604;28;20040;-71
2021/10/12 08:48:05;;;;;;;5.93;1.48;;;;;;;;;;5089733;28;20028;-71
2021/10/12 08:50:33;;;;;;;3.75;1.52;;;;;;;;;;5089778;28;20033;-70
2021/10/12 08:53:03;;;;;;;6.30;1.58;;;;;;;;;;5088421;28;20096;-71
2021/10/12 08:55:30;;;;;;;3.35;1.25;;;;;;;;;;5090095;28;20041;-73
2021/10/12 08:57:58;;;;;;;3.00;1.10;;;;;;;;;;5089926;28;20511;-72
2021/10/12 09:00:28;;;;;;;4.63;1.83;;;;;;;;;;5089010;28;20036;-75
2021/10/12 09:06:02;;;;;;;4.63;1.50;;;;;;;;;;5089626;28;20482;-74
2021/10/12 09:08:32;;;;;;;4.53;1.13;;;;;;;;;;5089432;28;20036;-71
2021/10/12 09:11:00;;;;;;;0.70;0.70;;;;;;;;;;5089392;28;20124;-71
2021/10/12 09:13:28;;;;;;;2.80;1.00;;;;;;;;;;5089499;28;20040;-73
2021/10/12 09:16:05;;;;;;;2.22;1.23;;;;;;;;;;5088828;28;20123;-74
2021/10/12 09:18:56;;;;;;;2.95;1.27;;;;;;;;;;5088346;28;20105;-75
2021/10/12 09:21:27;;;;;;;5.28;1.73;;;;;;;;;;5084486;28;20045;-75
2021/10/12 09:24:05;;;;;;;7.93;1.35;;;;;;;;;;5088976;28;20406;-73
2021/10/12 09:26:34;;;;;;;2.60;1.20;;;;;;;;;;5089221;28;20056;-71
2021/10/12 09:32:02;;;;;;;5.35;1.00;;;;;;;;;;5088364;28;20370;-73
2021/10/12 09:34:34;;;;;;;2.28;1.13;;;;;;;;;;5087493;28;20421;-74
2021/10/12 09:37:03;;;;;;;4.05;1.17;;;;;;;;;;5089072;28;20098;-70
2021/10/12 09:39:30;;;;;;;5.65;1.15;;;;;;;;;;5088249;28;20054;-74
2021/10/12 09:42:06;;;;;;;1.48;0.98;;;;;;;;;;5087045;28;20044;-73
2021/10/12 09:44:36;;;;;;;2.95;1.30;;;;;;;;;;5074821;28;20056;-72
2021/10/12 09:47:09;;;;;;;3.85;0.82;;;;;;;;;;5074360;28;20127;-71
2021/10/12 09:49:37;;;;;;;4.75;1.00;;;;;;;;;;5073175;28;20597;-71
2021/10/12 09:52:10;;;;;;;3.25;1.15;;;;;;;;;;5074601;28;20071;-75
2021/10/12 09:54:38;;;;;;;5.03;1.00;;;;;;;;;;5074750;28;20048;-73
2021/10/12 09:57:07;;;;;;;1.80;1.00;;;;;;;;;;5074840;28;20497;-72
2021/10/12 09:59:35;;;;;;;2.05;1.17;;;;;;;;;;5074377;28;20706;-71
2021/10/12 10:02:03;;;;;;;2.45;1.05;;;;;;;;;;5073387;28;20512;-71
2021/10/12 10:04:36;;;;;;;1.75;1.05;;;;;;;;;;5074971;28;20071;-73
2021/10/12 10:07:05;;;;;;;2.75;1.23;;;;;;;;;;5074704;28;20040;-72
2021/10/12 10:09:35;;;;;;;2.22;1.33;;;;;;;;;;5074699;28;20477;-72
2021/10/12 10:12:08;;;;;;;4.22;1.00;;;;;;;;;;5073450;28;20517;-72
2021/10/12 10:14:39;;;;;;;2.60;1.10;;;;;;;;;;5074187;28;20493;-72
2021/10/12 10:17:06;;;;;;;2.45;1.05;;;;;;;;;;5074730;28;20124;-71
2021/10/12 10:19:36;;;;;;;3.65;1.20;;;;;;;;;;5075079;28;20049;-73
2021/10/12 10:22:04;;;;;;;2.97;1.25;;;;;;;;;;5074761;28;20040;-70
2021/10/12 10:24:34;;;;;;;5.80;1.30;;;;;;;;;;5074541;28;20075;-72
2021/10/12 10:27:03;;;;;;;2.83;1.52;;;;;;;;;;5072808;28;20051;-72
2021/10/12 10:29:38;;;;;;;1.63;1.20;;;;;;;;;;5073171;28;20382;-73
2021/10/12 10:32:22;;;;;;;2.00;1.00;;;;;;;;;;5070960;28;20044;-71
2021/10/12 10:35:00;;;;;;;2.28;1.10;;;;;;;;;;5065824;28;20505;-72
2021/10/12 10:37:29;;;;;;;1.50;1.30;;;;;;;;;;5072878;28;20134;-71
2021/10/12 10:40:02;;;;;;;2.13;1.13;;;;;;;;;;5071690;28;20048;-72
2021/10/12 10:42:35;;;;;;;2.25;1.20;;;;;;;;;;5072386;28;20390;-71
2021/10/12 10:45:04;;;;;;;4.18;2.10;;;;;;;;;;5074206;28;20041;-72
2021/10/12 10:47:41;;;;;;;2.85;1.30;;;;;;;;;;5074194;28;20519;-73
2021/10/12 10:50:24;;;;;;;1.35;1.10;;;;;;;;;;5074157;28;20110;-72
2021/10/12 10:52:56;;;;;;;6.18;1.58;;;;;;;;;;5074326;28;20044;-72
2021/10/12 10:55:25;;;;;;;3.38;1.40;;;;;;;;;;5073442;28;20044;-72
2021/10/12 10:58:02;;;;;;;2.75;1.20;;;;;;;;;;5073447;28;20040;-72
2021/10/12 11:00:53;;;;;;;6.90;1.40;;;;;;;;;;5073235;28;20068;-72
2021/10/12 11:03:36;;;;;;;2.47;1.13;;;;;;;;;;5066107;28;20505;-71
2021/10/12 11:06:05;;;;;;;3.03;1.30;;;;;;;;;;5073515;28;20516;-73
2021/10/12 11:08:39;;;;;;;4.82;1.52;;;;;;;;;;5073520;28;20403;-71
2021/10/12 11:11:08;;;;;;;3.38;1.40;;;;;;;;;;5073315;28;20040;-72
2021/10/12 11:13:40;;;;;;;5.20;1.70;;;;;;;;;;5071891;28;20083;-72
2021/10/12 11:16:30;;;;;;;5.25;1.40;;;;;;;;;;5071899;28;20044;-71
2021/10/12 11:19:01;;;;;;;3.03;1.92;;;;;;;;;;5073004;28;20517;-71
2021/10/12 11:21:30;;;;;;;4.00;1.20;;;;;;;;;;5072869;28;20131;-71
2021/10/12 11:23:58;;;;;;;3.58;1.05;;;;;;;;;;5072870;28;20039;-72
2021/10/12 11:26:27;;;;;;;3.47;1.67;;;;;;;;;;5071659;28;20044;-71
2021/10/12 11:28:56;;;;;;;1.70;1.15;;;;;;;;;;5072554;28;20036;-72
2021/10/12 11:31:25;;;;;;;2.28;1.35;;;;;;;;;;5073225;28;20393;-71
2021/10/12 11:33:57;;;;;;;2.28;1.40;;;;;;;;;;5072735;28;20037;-72
2021/10/12 11:36:25;;;;;;;;;;;;;;;;;;5073458;28;20040;-72
2021/10/12 11:38:54;;;;;;;8.38;1.20;;;;;;;;;;5072849;28;19928;-72
2021/10/12 11:41:25;;;;;;;3.92;1.38;;;;;;;;;;5072244;28;20135;-72
2021/10/12 11:43:57;;;;;;;2.05;1.20;;;;;;;;;;5072670;28;20028;-72
2021/10/12 11:46:27;;;;;;;4.22;1.27;;;;;;;;;;5073099;28;20102;-72
2021/10/12 11:48:58;;;;;;;3.15;1.33;;;;;;;;;;5072423;28;20071;-72
2021/10/12 11:51:27;;;;;;;6.20;1.42;;;;;;;;;;5071704;28;20484;-73
2021/10/12 11:53:55;;;;;;;2.30;1.20;;;;;;;;;;5071664;28;20127;-73
2021/10/12 11:56:24;;;;;;;3.50;1.10;;;;;;;;;;5072668;28;20036;-73
2021/10/12 11:58:56;;;;;;;2.85;1.60;;;;;;;;;;5071785;28;20390;-73
2021/10/12 12:01:31;;;;;;;3.38;1.60;;;;;;;;;;5072553;28;20048;-72
2021/10/12 12:04:00;;;;;;;3.30;1.23;;;;;;;;;;5071277;28;20042;-73
2021/10/12 12:06:28;;;;;;;4.18;1.40;;;;;;;;;;5071696;28;20055;-73
2021/10/12 12:08:58;;;;;;;1.83;1.27;;;;;;;;;;5071803;28;20044;-72
2021/10/12 12:11:29;;;;;;;3.13;1.58;;;;;;;;;;5071937;28;20060;-72
2021/10/12 12:13:58;;;;;;;3.07;1.20;;;;;;;;;;5071014;28;20040;-74
2021/10/12 12:16:32;;;;;;;1.75;1.20;;;;;;;;;;5071212;28;20369;-73
2021/10/12 12:19:01;;;;;;;3.60;1.30;;;;;;;;;;5072538;28;20040;-71
2021/10/12 12:21:33;;;;;;;1.20;1.10;;;;;;;;;;5072585;28;20049;-72
2021/10/12 12:24:02;;;;;;;2.53;1.23;;;;;;;;;;5070547;28;20036;-73
2021/10/12 12:26:31;;;;;;;2.75;1.40;;;;;;;;;;5072508;28;20051;-72
2021/10/12 12:29:17;;;;;;;4.43;1.27;;;;;;;;;;5072094;28;20037;-73
2021/10/12 12:31:47;;;;;;;2.42;1.50;;;;;;;;;;5071036;28;20060;-71
2021/10/12 12:34:28;;;;;;;2.75;1.35;;;;;;;;;;5072728;28;20040;-73
2021/10/12 12:36:56;;;;;;;3.25;1.05;;;;;;;;;;5072284;28;20041;-72
2021/10/12 12:39:33;;;;;;;3.15;1.20;;;;;;;;;;5071455;28;20060;-73
2021/10/12 12:42:01;;;;;;;3.42;1.17;;;;;;;;;;5072361;28;20493;-72
2021/10/12 12:44:28;;;;;;;3.15;1.20;;;;;;;;;;5051436;28;20041;-74
2021/10/12 12:46:57;;;;;;;2.63;1.30;;;;;;;;;;5052514;28;20049;-73
2021/10/12 12:49:24;;;;;;;3.05;1.67;;;;;;;;;;5052521;28;20490;-71
2021/10/12 12:51:52;;;;;;;3.70;1.40;;;;;;;;;;5050905;28;20044;-73
2021/10/12 12:54:46;;;;;;;2.60;1.40;;;;;;;;;;5052245;28;20045;-71
2021/10/12 12:57:15;;;;;;;1.50;1.20;;;;;;;;;;5060754;28;20131;-72
2021/10/12 12:59:46;;;;;;;4.07;0.93;;;;;;;;;;5071365;28;20051;-71
2021/10/12 13:02:20;;;;;;;4.63;1.30;;;;;;;;;;5070418;28;20048;-73
2021/10/12 13:04:49;;;;;;;3.08;0.90;;;;;;;;;;5071633;28;20088;-72
2021/10/12 13:07:17;;;;;;;3.30;1.15;;;;;;;;;;5070333;28;20059;-72
2021/10/12 13:09:47;;;;;;;1.80;1.10;;;;;;;;;;5070732;28;20440;-74
2021/10/12 13:12:21;;;;;;;11.05;1.50;;;;;;;;;;5071011;28;20037;-72
2021/10/12 13:14:49;;;;;;;1.95;1.17;;;;;;;;;;5072261;28;20094;-71
2021/10/12 13:17:19;;;;;;;1.30;0.90;;;;;;;;;;5072748;28;20367;-72
2021/10/12 13:19:48;;;;;;;1.65;1.00;;;;;;;;;;5058509;28;20490;-70
2021/10/12 13:22:15;;;;;;;2.50;1.17;;;;;;;;;;5074925;28;20037;-70
2021/10/12 13:24:43;;;;;;;1.77;0.90;;;;;;;;;;5075584;28;20048;-73
2021/10/12 13:27:11;;;;;;;4.43;1.52;;;;;;;;;;5074665;28;20040;-72
2021/10/12 13:29:39;;;;;;;1.92;1.05;;;;;;;;;;5075717;28;20436;-73
2021/10/12 13:32:06;;;;;;;2.20;1.15;;;;;;;;;;5075531;28;20041;-72
2021/10/12 13:34:34;;;;;;;4.95;1.05;;;;;;;;;;5075416;28;20040;-72
2021/10/12 13:37:01;;;;;;;2.60;0.88;;;;;;;;;;5075561;28;20055;-70
2021/10/12 13:39:29;;;;;;;1.67;1.10;;;;;;;;;;5074917;28;20033;-72
2021/10/12 13:41:57;;;;;;;3.13;1.45;;;;;;;;;;5075650;28;20080;-72
2021/10/12 13:44:32;;;;;;;3.05;2.17;;;;;;;;;;5073599;28;20505;-72
2021/10/12 13:47:00;;;;;;;3.60;1.27;;;;;;;;;;5070363;28;20058;-71
2021/10/12 13:49:27;;;;;;;1.83;1.00;;;;;;;;;;5073599;28;20402;-73
2021/10/12 13:51:55;;;;;;;1.90;1.08;;;;;;;;;;5078480;28;20144;-71
2021/10/12 13:54:24;;;;;;;2.75;1.10;;;;;;;;;;5085393;28;20053;-72
2021/10/12 13:56:53;;;;;;;4.93;1.30;;;;;;;;;;5081339;28;20051;-71
2021/10/12 13:59:25;;;;;;;2.50;1.10;;;;;;;;;;5074624;28;20040;-74
2021/10/12 14:01:52;;;;;;;2.15;1.10;;;;;;;;;;5072797;28;20054;-72
2021/10/12 14:04:20;;;;;;;3.20;1.50;;;;;;;;;;5073934;28;20037;-72
2021/10/12 14:06:48;;;;;;;1.40;1.27;;;;;;;;;;5073036;28;20119;-74
2021/10/12 14:09:15;;;;;;;2.40;1.10;;;;;;;;;;5074818;28;20036;-74
2021/10/12 14:11:46;;;;;;;2.78;1.23;;;;;;;;;;5074738;28;20405;-74
2021/10/12 14:14:14;;;;;;;2.25;1.20;;;;;;;;;;5074767;28;20068;-74
2021/10/12 14:16:41;;;;;;;7.70;1.40;;;;;;;;;;5075008;28;20040;-72
2021/10/12 14:19:09;;;;;;;1.88;1.20;;;;;;;;;;5074989;28;20041;-72
2021/10/12 14:21:37;;;;;;;3.63;1.08;;;;;;;;;;5074110;28;20040;-72
2021/10/12 14:24:07;;;;;;;2.40;1.60;;;;;;;;;;5074212;28;20497;-72
2021/10/12 14:26:35;;;;;;;4.50;1.30;;;;;;;;;;5068815;28;20558;-73
2021/10/12 14:29:04;;;;;;;7.20;1.45;;;;;;;;;;5071693;28;20044;-72
2021/10/12 14:31:32;;;;;;;2.08;1.10;;;;;;;;;;5071531;28;20420;-73
2021/10/12 14:34:01;;;;;;;2.72;1.10;;;;;;;;;;5070218;28;20041;-72
2021/10/12 14:36:28;;;;;;;2.78;1.00;;;;;;;;;;5071514;28;20127;-72
2021/10/12 14:38:56;;;;;;;1.67;0.90;;;;;;;;;;5068216;28;20044;-72
2021/10/12 14:41:24;;;;;;;2.72;1.05;;;;;;;;;;5071555;28;20053;-71
2021/10/12 14:43:55;;;;;;;3.75;1.75;;;;;;;;;;5071066;28;20055;-71
2021/10/12 14:46:27;;;;;;;2.03;1.05;;;;;;;;;;5071327;28;20042;-71
2021/10/12 14:48:58;;;;;;;2.72;1.20;;;;;;;;;;5076332;28;20036;-71
2021/10/12 14:51:26;;;;;;;2.05;1.33;;;;;;;;;;5070400;28;20506;-73
2021/10/12 14:53:53;;;;;;;4.47;1.45;;;;;;;;;;5068829;28;20102;-72
2021/10/12 14:56:21;;;;;;;1.27;0.98;;;;;;;;;;5070630;28;20131;-73
2021/10/12 14:58:49;;;;;;;1.52;1.00;;;;;;;;;;5071339;28;20512;-75
2021/10/12 15:01:16;;;;;;;4.10;1.00;;;;;;;;;;5070612;28;20044;-73
2021/10/12 15:03:45;;;;;;;2.33;1.00;;;;;;;;;;5071033;28;20045;-72
2021/10/12 15:06:27;;;;;;;1.05;0.93;;;;;;;;;;5071444;28;20512;-72
2021/10/12 15:08:58;;;;;;;3.13;1.13;;;;;;;;;;5071384;28;20049;-75
2021/10/12 15:11:27;;;;;;;3.83;1.48;;;;;;;;;;5071163;28;20120;-75
2021/10/12 15:13:55;;;;;;;5.57;1.55;;;;;;;;;;5070220;28;20054;-74
2021/10/12 15:16:23;;;;;;;3.00;1.08;;;;;;;;;;5071431;28;20045;-73
2021/10/12 15:18:50;;;;;;;4.60;1.20;;;;;;;;;;5071272;28;20486;-72
2021/10/12 15:21:18;;;;;;;1.48;1.00;;;;;;;;;;5071543;28;20040;-75
2021/10/12 15:23:46;;;;;;;2.65;1.20;;;;;;;;;;5071211;28;20036;-73
2021/10/12 15:26:14;;;;;;;5.25;1.50;;;;;;;;;;5071196;28;20038;-72
2021/10/12 15:28:41;;;;;;;4.50;1.67;;;;;;;;;;5072901;28;20043;-74
2021/10/12 15:31:15;;;;;;;2.63;0.80;;;;;;;;;;5072133;28;20405;-75